Time;durP1;ratioP1;P1;durP2;ratioP2;P2;SDS_P1;SDS_P2;PMS_P1;PMS_P2;Temp;Humidity;BMP_temperature;BMP_pressure;BME280_temperature;BME280_humidity;BME280_pressure;Samples;Min_cycle;Max_cycle;Signal;HPM_P1;HPM_P2
2023/08/12 00:01:10;;;;;;;4.63;2.92;;;;;;;19.08;65.35;101379.00;7399903;19;20078;-66
2023/08/12 00:03:39;;;;;;;3.97;2.30;;;;;;;19.07;65.71;101377.28;7398941;19;21865;-66
2023/08/12 00:06:10;;;;;;;4.28;2.47;;;;;;;19.03;65.33;101383.66;7399884;19;20376;-66
2023/08/12 00:08:38;;;;;;;3.63;2.75;;;;;;;19.00;65.46;101379.34;7398206;19;20445;-66
2023/08/12 00:11:07;;;;;;;5.10;2.40;;;;;;;18.97;65.57;101379.50;7399716;19;20023;-66
2023/08/12 00:13:35;;;;;;;3.83;2.75;;;;;;;18.93;65.92;101375.28;7398381;19;20082;-66
2023/08/12 00:16:04;;;;;;;3.20;2.78;;;;;;;18.92;66.11;101378.88;7399175;19;20091;-67
2023/08/12 00:18:36;;;;;;;7.53;2.60;;;;;;;18.89;66.60;101373.66;7398904;19;20018;-64
2023/08/12 00:21:12;;;;;;;5.28;3.08;;;;;;;18.87;66.46;101376.38;7400830;19;20010;-68
2023/08/12 00:23:44;;;;;;;6.32;3.15;;;;;;;18.85;66.91;101375.59;7397764;19;20029;-66
2023/08/12 00:26:12;;;;;;;5.65;3.13;;;;;;;18.83;66.75;101374.81;7399215;19;20006;-66
2023/08/12 00:28:41;;;;;;;4.78;3.28;;;;;;;18.82;66.83;101382.88;7399192;19;20078;-67
2023/08/12 00:31:09;;;;;;;3.17;2.85;;;;;;;18.81;66.91;101381.13;7399350;19;20011;-65
2023/08/12 00:33:38;;;;;;;6.90;2.80;;;;;;;18.78;67.20;101374.16;7398177;19;20426;-65
2023/08/12 00:36:07;;;;;;;3.33;2.78;;;;;;;18.75;67.11;101371.63;7398931;19;20534;-66
2023/08/12 00:38:38;;;;;;;5.25;2.95;;;;;;;18.75;67.40;101365.47;7398814;19;20015;-66
2023/08/12 00:41:06;;;;;;;4.78;3.10;;;;;;;18.72;67.45;101359.34;7397064;19;20014;-66
2023/08/12 00:43:35;;;;;;;4.72;2.92;;;;;;;18.71;67.57;101360.28;7397441;19;20496;-66
2023/08/12 00:46:04;;;;;;;3.17;2.70;;;;;;;18.69;68.04;101361.28;7398549;19;20355;-65
2023/08/12 00:48:32;;;;;;;4.78;3.03;;;;;;;18.66;67.68;101361.44;7398832;19;20078;-66
2023/08/12 00:51:01;;;;;;;7.32;3.28;;;;;;;18.64;68.01;101357.97;7398714;19;20082;-66
2023/08/12 00:53:29;;;;;;;5.53;3.60;;;;;;;18.61;68.00;101345.69;7397743;19;20035;-66
2023/08/12 00:56:00;;;;;;;6.80;3.60;;;;;;;18.60;68.61;101346.63;7396139;19;20510;-66
2023/08/12 00:58:29;;;;;;;5.10;3.60;;;;;;;18.58;68.65;101348.50;7398703;19;20092;-65
2023/08/12 01:00:58;;;;;;;4.80;3.05;;;;;;;18.54;68.28;101342.47;7398371;19;20014;-66
2023/08/12 01:03:27;;;;;;;3.58;2.80;;;;;;;18.53;68.71;101334.56;7397551;19;20032;-67
2023/08/12 01:05:55;;;;;;;4.13;2.88;;;;;;;18.50;68.51;101338.22;7395946;19;20015;-66
2023/08/12 01:08:25;;;;;;;6.95;2.97;;;;;;;18.48;68.67;101331.25;7398214;19;20015;-67
2023/08/12 01:10:59;;;;;;;4.47;3.22;;;;;;;18.46;68.92;101338.44;7398150;19;20015;-67
2023/08/12 01:14:00;;;;;;;3.40;2.88;;;;;;;18.39;69.26;101333.38;7399037;19;20396;-65
2023/08/12 01:16:47;;;;;;;3.55;2.72;;;;;;;18.37;69.46;101329.09;7397230;19;20384;-65
2023/08/12 01:19:28;;;;;;;4.20;3.05;;;;;;;18.35;69.70;101320.31;7398288;19;20019;-65
2023/08/12 01:22:01;;;;;;;5.65;3.13;;;;;;;18.31;69.72;101318.72;7398133;19;20074;-65
2023/08/12 01:24:37;;;;;;;3.60;2.73;;;;;;;18.29;69.88;101315.31;7395751;19;20031;-65
2023/08/12 01:27:06;;;;;;;3.95;2.78;;;;;;;18.25;69.79;101311.91;7397838;19;20013;-65
2023/08/12 01:29:35;;;;;;;3.20;2.90;;;;;;;18.23;70.12;101304.00;7397006;19;20035;-65
2023/08/12 01:32:11;;;;;;;3.83;2.65;;;;;;;18.19;70.20;101307.72;7395548;19;20078;-65
2023/08/12 01:34:46;;;;;;;4.90;2.70;;;;;;;18.17;70.26;101298.09;7395731;19;20021;-65
2023/08/12 01:37:24;;;;;;;3.80;2.67;;;;;;;18.14;70.77;101296.44;7395143;19;20033;-65
2023/08/12 01:39:56;;;;;;;6.50;3.03;;;;;;;18.11;70.61;101285.97;7397530;19;20037;-65
2023/08/12 01:42:27;;;;;;;3.92;2.60;;;;;;;18.10;70.50;101286.03;7394934;19;20015;-65
2023/08/12 01:44:55;;;;;;;4.03;3.00;;;;;;;18.06;70.92;101285.31;7394698;19;20414;-66
2023/08/12 01:47:23;;;;;;;3.92;2.80;;;;;;;18.03;71.29;101288.97;7395158;19;20019;-65
2023/08/12 01:49:52;;;;;;;4.45;2.63;;;;;;;18.02;71.52;101289.03;7394663;19;20083;-65
2023/08/12 01:52:20;;;;;;;4.95;3.15;;;;;;;18.02;71.40;101289.91;7395469;19;20013;-65
2023/08/12 01:54:49;;;;;;;4.78;3.00;;;;;;;17.99;71.21;101284.72;7394954;19;20070;-65
2023/08/12 01:57:20;;;;;;;5.90;3.08;;;;;;;17.99;71.44;101291.84;7396637;19;20015;-66
2023/08/12 01:59:49;;;;;;;4.80;3.00;;;;;;;17.96;71.49;101286.63;7394574;19;20020;-66
2023/08/12 02:02:17;;;;;;;3.70;2.35;;;;;;;17.95;71.24;101280.47;7396398;19;20027;-65
2023/08/12 02:04:45;;;;;;;7.07;3.08;;;;;;;17.94;71.29;101278.75;7394661;19;20022;-65
2023/08/12 02:07:14;;;;;;;4.43;2.90;;;;;;;17.94;71.42;101281.41;7394459;19;20078;-65
2023/08/12 02:09:42;;;;;;;3.80;2.97;;;;;;;17.94;71.33;101270.78;7396202;19;20019;-65
2023/08/12 02:12:11;;;;;;;4.68;3.72;;;;;;;17.94;71.30;101260.16;7394049;19;20423;-65
2023/08/12 02:14:42;;;;;;;6.97;4.22;;;;;;;17.95;71.45;101258.41;7394131;19;20017;-66
2023/08/12 02:17:08;;;;;;;4.22;3.63;;;;;;;17.94;71.52;101259.31;7394830;19;20422;-65
2023/08/12 02:19:36;;;;;;;4.55;3.13;;;;;;;17.93;71.56;101261.06;7395950;19;20018;-66
2023/08/12 02:22:05;;;;;;;5.28;3.42;;;;;;;17.93;71.72;101255.75;7395430;19;20031;-66
2023/08/12 02:24:34;;;;;;;4.25;3.65;;;;;;;17.92;71.96;101254.91;7393376;19;20477;-66
2023/08/12 02:27:02;;;;;;;4.13;3.10;;;;;;;17.90;72.08;101251.44;7395668;19;20023;-65
2023/08/12 02:29:31;;;;;;;4.22;3.10;;;;;;;17.90;71.79;101245.28;7395580;19;20041;-65
2023/08/12 02:32:02;;;;;;;4.43;3.28;;;;;;;17.87;72.17;101243.63;7395510;19;20094;-65
2023/08/12 02:34:30;;;;;;;6.97;4.00;;;;;;;17.87;72.23;101248.09;7394109;19;20010;-65
2023/08/12 02:36:59;;;;;;;4.95;3.00;;;;;;;17.86;72.34;101241.06;7395726;19;20368;-65
2023/08/12 02:39:27;;;;;;;7.93;3.33;;;;;;;17.84;72.44;101238.44;7393566;19;20027;-65
2023/08/12 02:41:56;;;;;;;5.38;3.03;;;;;;;17.84;72.73;101240.25;7395115;19;20015;-65
2023/08/12 02:44:24;;;;;;;3.25;2.72;;;;;;;17.80;72.34;101236.88;7393247;19;20074;-65
2023/08/12 02:46:53;;;;;;;6.47;3.05;;;;;;;17.77;72.39;101236.13;7395150;19;20073;-65
2023/08/12 02:49:24;;;;;;;4.68;2.63;;;;;;;17.72;72.70;101231.03;7393266;19;20028;-65
2023/08/12 02:51:52;;;;;;;4.20;2.60;;;;;;;17.69;72.64;101233.81;7395482;19;20081;-65
2023/08/12 02:54:21;;;;;;;3.22;2.33;;;;;;;17.67;72.64;101231.25;7393100;19;20062;-65
2023/08/12 02:56:49;;;;;;;5.60;2.55;;;;;;;17.65;73.03;101238.38;7394905;19;20023;-65
2023/08/12 02:59:18;;;;;;;5.78;3.08;;;;;;;17.64;73.14;101239.34;7394754;19;20010;-65
2023/08/12 03:01:46;;;;;;;3.97;3.03;;;;;;;17.63;73.15;101234.97;7394329;19;20430;-65
2023/08/12 03:04:15;;;;;;;3.28;2.67;;;;;;;17.62;73.22;101225.28;7392777;19;20027;-64
2023/08/12 03:06:46;;;;;;;4.22;2.60;;;;;;;17.61;73.10;101231.50;7399187;19;20011;-65
2023/08/12 03:09:14;;;;;;;4.88;3.47;;;;;;;17.57;73.21;101221.97;7401691;19;20028;-65
2023/08/12 03:11:43;;;;;;;6.03;3.10;;;;;;;17.55;73.22;101222.03;7402167;19;20022;-65
2023/08/12 03:14:11;;;;;;;6.97;2.92;;;;;;;17.54;73.33;101217.66;7400271;19;20019;-66
2023/08/12 03:16:40;;;;;;;4.10;3.00;;;;;;;17.54;73.57;101219.44;7400486;19;20014;-65
2023/08/12 03:19:08;;;;;;;4.38;2.63;;;;;;;17.54;73.47;101227.38;7401490;19;20002;-65
2023/08/12 03:21:37;;;;;;;3.38;2.97;;;;;;;17.53;73.73;101226.53;7401705;19;20070;-64
2023/08/12 03:24:08;;;;;;;4.03;2.95;;;;;;;17.52;73.65;101221.31;7399730;19;20092;-65
2023/08/12 03:26:37;;;;;;;3.67;3.10;;;;;;;17.50;73.84;101220.50;7399379;19;20414;-65
2023/08/12 03:29:06;;;;;;;4.15;3.40;;;;;;;17.47;73.84;101212.69;7401079;19;20006;-65
2023/08/12 03:31:34;;;;;;;4.07;3.00;;;;;;;17.45;74.46;101211.88;7400937;19;20373;-65
2023/08/12 03:34:03;;;;;;;3.33;2.80;;;;;;;17.42;74.24;101212.88;7399136;19;20027;-65
2023/08/12 03:36:32;;;;;;;3.97;3.58;;;;;;;17.40;74.53;101220.03;7400650;19;20006;-65
2023/08/12 03:39:00;;;;;;;3.50;3.00;;;;;;;17.38;74.65;101217.44;7401187;19;20031;-65
2023/08/12 03:41:31;;;;;;;5.75;3.35;;;;;;;17.36;74.69;101223.75;7400732;19;20477;-64
2023/08/12 03:44:00;;;;;;;3.50;2.90;;;;;;;17.33;74.58;101214.13;7398757;19;20354;-65
2023/08/12 03:46:28;;;;;;;9.13;5.63;;;;;;;17.32;74.73;101209.75;7398181;19;20023;-65
2023/08/12 03:48:57;;;;;;;16.92;10.48;;;;;;;17.30;74.82;101205.44;7400842;19;20028;-65
2023/08/12 03:51:25;;;;;;;5.53;4.30;;;;;;;17.28;74.88;101204.66;7400386;19;20098;-65
2023/08/12 03:53:54;;;;;;;10.30;6.30;;;;;;;17.23;74.93;101197.72;7397942;19;20015;-65
2023/08/12 03:56:22;;;;;;;6.80;4.05;;;;;;;17.21;74.56;101196.97;7397591;19;20604;-65
2023/08/12 03:58:53;;;;;;;6.32;3.75;;;;;;;17.19;74.82;101197.94;7397851;19;20028;-65
2023/08/12 04:01:22;;;;;;;10.82;7.90;;;;;;;17.17;74.87;101200.66;7397731;19;20018;-65
2023/08/12 04:03:50;;;;;;;6.82;4.20;;;;;;;17.16;74.56;101198.06;7398777;19;20089;-65
2023/08/12 04:06:19;;;;;;;9.55;6.35;;;;;;;17.15;74.56;101194.56;7398325;19;20006;-65
2023/08/12 04:08:47;;;;;;;9.55;5.90;;;;;;;17.15;74.46;101193.69;7399969;19;20415;-65
2023/08/12 04:11:16;;;;;;;12.57;6.07;;;;;;;17.15;74.73;101198.97;7397087;19;20010;-65
2023/08/12 04:13:44;;;;;;;12.68;8.98;;;;;;;17.14;74.66;101195.50;7398624;19;20418;-65
2023/08/12 04:16:15;;;;;;;6.13;4.13;;;;;;;17.14;74.42;101198.13;7396243;19;20019;-65
2023/08/12 04:18:44;;;;;;;7.05;5.70;;;;;;;17.15;74.20;101193.69;7399734;19;20011;-65
2023/08/12 04:21:13;;;;;;;11.50;8.40;;;;;;;17.15;74.61;101193.69;7399319;19;20029;-65
2023/08/12 04:23:41;;;;;;;6.47;4.82;;;;;;;17.15;74.29;101193.69;7396734;19;20362;-65
2023/08/12 04:26:10;;;;;;;5.43;4.47;;;;;;;17.15;74.28;101183.06;7397469;19;20500;-65
2023/08/12 04:28:38;;;;;;;6.22;4.03;;;;;;;17.16;74.45;101184.81;7398592;19;20006;-65
2023/08/12 04:31:09;;;;;;;5.28;4.25;;;;;;;17.16;74.03;101190.13;7398990;19;20011;-65
2023/08/12 04:33:40;;;;;;;9.00;7.30;;;;;;;17.18;74.59;101188.28;7397834;19;20510;-66
2023/08/12 04:36:09;;;;;;;10.65;6.68;;;;;;;17.19;74.31;101188.19;7396330;19;20007;-65
2023/08/12 04:38:39;;;;;;;8.45;5.57;;;;;;;17.21;74.69;101183.69;7398964;19;20035;-65
2023/08/12 04:41:07;;;;;;;7.40;4.57;;;;;;;17.22;74.51;101179.25;7398830;19;20019;-65
2023/08/12 04:43:36;;;;;;;7.25;4.55;;;;;;;17.25;74.43;101184.44;7396559;19;20022;-65
2023/08/12 04:46:04;;;;;;;7.63;6.22;;;;;;;17.26;74.28;101179.06;7397478;19;20019;-65
2023/08/12 04:48:34;;;;;;;9.02;5.75;;;;;;;17.30;74.22;101181.56;7396538;19;20410;-65
2023/08/12 04:51:05;;;;;;;19.50;11.68;;;;;;;17.33;74.16;101181.44;7398765;19;20024;-65
2023/08/12 04:53:34;;;;;;;22.65;13.60;;;;;;;17.35;74.22;101176.94;7396580;19;20014;-66
2023/08/12 04:56:02;;;;;;;7.88;5.65;;;;;;;17.39;73.97;101170.59;7398683;19;20014;-65
2023/08/12 04:58:30;;;;;;;6.18;4.40;;;;;;;17.41;73.78;101174.88;7397979;19;20011;-65
2023/08/12 05:00:59;;;;;;;4.50;4.10;;;;;;;17.46;73.51;101166.72;7396177;19;20032;-66
2023/08/12 05:03:25;;;;;;;5.25;3.85;;;;;;;17.51;73.61;101177.13;7396113;19;20010;-65
2023/08/12 05:05:54;;;;;;;23.58;14.73;;;;;;;17.54;73.42;101172.56;7396872;19;20027;-65
2023/08/12 05:08:25;;;;;;;7.60;5.40;;;;;;;17.59;73.31;101173.22;7398049;19;20018;-66
2023/08/12 05:10:54;;;;;;;9.25;5.90;;;;;;;17.66;73.38;101171.13;7399001;19;20090;-65
2023/08/12 05:13:23;;;;;;;11.40;6.07;;;;;;;17.73;73.38;101164.63;7396938;19;20015;-65
2023/08/12 05:15:51;;;;;;;5.20;4.70;;;;;;;17.81;73.37;101174.03;7397618;19;20380;-66
2023/08/12 05:18:20;;;;;;;9.90;6.20;;;;;;;17.89;73.03;101164.81;7395095;19;20090;-65
2023/08/12 05:20:48;;;;;;;8.52;6.25;;;;;;;17.98;72.72;101158.22;7397722;19;20024;-65
2023/08/12 05:23:17;;;;;;;10.25;5.47;;;;;;;18.05;72.55;101154.34;7396891;19;20015;-65
2023/08/12 05:25:48;;;;;;;6.72;3.92;;;;;;;18.15;72.53;101157.44;7397270;19;20032;-65
2023/08/12 05:28:17;;;;;;;6.28;4.68;;;;;;;18.24;72.34;101150.84;7393648;19;20023;-65
2023/08/12 05:30:45;;;;;;;3.97;3.30;;;;;;;18.33;72.34;101153.03;7395648;19;20014;-65
2023/08/12 05:33:14;;;;;;;5.60;3.72;;;;;;;18.41;71.99;101155.34;7395232;19;20501;-65
2023/08/12 05:35:42;;;;;;;4.82;3.78;;;;;;;18.49;71.92;101155.84;7397368;19;20027;-66
2023/08/12 05:38:11;;;;;;;5.85;3.50;;;;;;;18.59;71.25;101158.91;7397382;19;20031;-65
2023/08/12 05:40:39;;;;;;;5.93;3.55;;;;;;;18.67;71.42;101162.03;7397213;19;20124;-66
2023/08/12 05:43:11;;;;;;;5.45;4.05;;;;;;;18.77;71.33;101153.63;7395184;19;20022;-65
2023/08/12 05:45:39;;;;;;;8.82;5.25;;;;;;;18.86;71.06;101159.31;7394754;19;20007;-66
2023/08/12 05:48:08;;;;;;;4.32;3.92;;;;;;;18.96;70.99;101154.44;7396562;19;20018;-65
2023/08/12 05:50:37;;;;;;;5.25;4.00;;;;;;;19.07;70.77;101155.69;7394313;19;20023;-65
2023/08/12 05:53:05;;;;;;;4.10;3.58;;;;;;;19.16;70.42;101157.91;7395918;19;20010;-66
2023/08/12 05:55:36;;;;;;;7.15;5.00;;;;;;;19.23;70.31;101159.28;7396510;19;20026;-65
2023/08/12 05:58:04;;;;;;;6.10;3.83;;;;;;;19.32;70.12;101165.94;7395994;19;20011;-66
2023/08/12 06:00:35;;;;;;;4.00;3.63;;;;;;;19.39;69.67;101163.84;7395907;19;20440;-65
2023/08/12 06:03:04;;;;;;;5.65;4.20;;;;;;;19.49;69.73;101170.41;7395351;19;20070;-66
2023/08/12 06:05:32;;;;;;;4.38;3.58;;;;;;;19.59;69.88;101160.09;7395633;19;20022;-65
2023/08/12 06:08:01;;;;;;;6.57;4.07;;;;;;;19.67;69.58;101165.88;7394358;19;20074;-66
2023/08/12 06:10:29;;;;;;;6.10;3.40;;;;;;;19.75;69.16;101158.38;7395820;19;20014;-64
2023/08/12 06:12:58;;;;;;;5.07;3.55;;;;;;;19.87;69.30;101159.53;7393864;19;20028;-65
2023/08/12 06:15:26;;;;;;;6.13;3.35;;;;;;;19.96;68.79;101153.69;7395971;19;20035;-65
2023/08/12 06:17:57;;;;;;;6.00;3.80;;;;;;;20.10;68.96;101149.41;7393697;19;20502;-65
2023/08/12 06:20:26;;;;;;;7.80;3.70;;;;;;;20.21;68.31;101146.13;7394731;19;20022;-65
2023/08/12 06:22:55;;;;;;;4.18;3.78;;;;;;;20.32;68.29;101141.94;7394034;19;20014;-65
2023/08/12 06:25:23;;;;;;;10.75;5.45;;;;;;;20.44;67.61;101152.84;7395422;19;20014;-65
2023/08/12 06:27:51;;;;;;;9.57;6.10;;;;;;;20.55;67.42;101155.75;7393469;19;20070;-65
2023/08/12 06:30:20;;;;;;;14.93;4.75;;;;;;;20.65;67.43;101151.63;7393605;19;20074;-64
2023/08/12 06:32:49;;;;;;;10.65;7.80;;;;;;;20.76;67.30;101152.81;7394509;19;20481;-65
2023/08/12 06:35:20;;;;;;;11.55;6.85;;;;;;;20.86;67.18;101153.16;7393739;19;20032;-65
2023/08/12 06:37:48;;;;;;;9.52;5.70;;;;;;;20.94;67.36;101156.22;7395739;19;20069;-65
2023/08/12 06:40:17;;;;;;;8.02;7.20;;;;;;;21.02;67.08;101153.97;7392766;19;20015;-65
2023/08/12 06:42:45;;;;;;;5.00;4.13;;;;;;;21.12;66.52;101156.94;7394939;19;20010;-65
2023/08/12 06:45:14;;;;;;;6.53;4.28;;;;;;;21.19;66.78;101152.94;7394584;19;20379;-64
2023/08/12 06:47:43;;;;;;;7.13;4.63;;;;;;;21.25;66.03;101149.91;7393270;19;20022;-65
2023/08/12 06:50:11;;;;;;;5.53;4.00;;;;;;;21.31;65.69;101144.22;7394288;19;20070;-65
2023/08/12 06:52:42;;;;;;;5.22;3.70;;;;;;;21.37;65.59;101148.31;7392302;19;20423;-65
2023/08/12 06:55:11;;;;;;;6.18;3.97;;;;;;;21.42;65.90;101143.56;7392717;19;20481;-65
2023/08/12 06:57:39;;;;;;;5.80;3.30;;;;;;;21.46;65.71;101137.06;7394378;19;20481;-65
2023/08/12 07:00:15;;;;;;;6.13;3.67;;;;;;;21.52;65.10;101145.66;7394737;19;20014;-65
2023/08/12 07:02:43;;;;;;;5.90;4.45;;;;;;;21.55;65.21;101135.69;7394791;19;20082;-66
2023/08/12 07:05:12;;;;;;;4.70;3.60;;;;;;;21.60;64.94;101138.94;7392723;19;20031;-66
2023/08/12 07:07:43;;;;;;;3.70;3.03;;;;;;;21.64;64.44;101135.09;7392160;19;20015;-66
2023/08/12 07:10:12;;;;;;;5.30;3.90;;;;;;;21.71;64.01;101124.03;7392524;19;20014;-66
2023/08/12 07:12:41;;;;;;;6.93;3.90;;;;;;;21.79;63.77;101132.44;7393569;19;20486;-66
2023/08/12 07:15:11;;;;;;;4.13;3.30;;;;;;;21.87;63.58;101119.44;7394067;19;20014;-65
2023/08/12 07:17:46;;;;;;;7.35;4.07;;;;;;;21.96;63.54;101126.91;7392459;19;20018;-65
2023/08/12 07:20:14;;;;;;;4.25;3.50;;;;;;;22.10;63.58;101122.47;7394481;19;20027;-66
2023/08/12 07:22:45;;;;;;;7.47;4.57;;;;;;;22.20;63.35;101112.88;7391991;19;20015;-66
2023/08/12 07:25:14;;;;;;;5.15;3.92;;;;;;;22.32;62.56;101113.03;7392198;19;20019;-66
2023/08/12 07:27:42;;;;;;;5.75;3.88;;;;;;;22.42;62.72;101114.22;7391842;19;20078;-66
2023/08/12 07:30:12;;;;;;;4.95;3.17;;;;;;;22.50;62.16;101117.22;7391331;19;20014;-66
2023/08/12 07:32:40;;;;;;;4.97;3.42;;;;;;;22.57;61.97;101121.22;7393253;19;20097;-67
2023/08/12 07:35:10;;;;;;;4.75;3.15;;;;;;;22.66;61.54;101116.19;7391789;19;20018;-66
2023/08/12 07:37:39;;;;;;;4.72;3.47;;;;;;;22.76;61.17;101111.94;7391411;19;20032;-66
2023/08/12 07:40:12;;;;;;;4.35;3.58;;;;;;;22.86;61.08;101107.69;7391706;19;20517;-66
2023/08/12 07:42:40;;;;;;;7.72;3.25;;;;;;;22.97;60.90;101111.44;7391396;19;20015;-65
2023/08/12 07:45:11;;;;;;;5.32;3.78;;;;;;;23.10;60.77;101109.63;7391006;19;20015;-66
2023/08/12 07:47:39;;;;;;;6.05;4.25;;;;;;;23.22;60.28;101113.31;7391151;19;20430;-66
2023/08/12 07:50:09;;;;;;;4.78;4.03;;;;;;;23.34;59.75;101103.56;7389839;19;20007;-66
2023/08/12 07:52:37;;;;;;;4.80;3.55;;;;;;;23.46;60.16;101107.22;7397535;19;20041;-66
2023/08/12 07:55:07;;;;;;;4.88;3.45;;;;;;;23.58;59.41;101101.84;7400241;19;20409;-66
2023/08/12 07:57:38;;;;;;;3.50;3.13;;;;;;;23.70;59.27;101101.94;7400759;19;20040;-66
2023/08/12 08:00:08;;;;;;;7.75;3.53;;;;;;;23.82;58.95;101103.75;7397593;19;20027;-65
2023/08/12 08:02:38;;;;;;;3.80;3.40;;;;;;;23.90;58.59;101098.66;7397683;19;20379;-66
2023/08/12 08:05:08;;;;;;;5.22;3.30;;;;;;;23.98;58.31;101105.34;7397156;19;20030;-65
2023/08/12 08:07:36;;;;;;;3.47;3.10;;;;;;;24.05;57.88;101095.88;7398426;19;20481;-66
2023/08/12 08:10:05;;;;;;;3.38;3.03;;;;;;;24.11;57.39;101106.13;7397260;19;20011;-66
2023/08/12 08:12:33;;;;;;;3.53;3.10;;;;;;;24.15;57.31;101102.28;7399775;19;20037;-68
2023/08/12 08:15:05;;;;;;;6.43;3.05;;;;;;;24.19;56.85;101110.94;7399920;19;20014;-68
2023/08/12 08:17:33;;;;;;;5.45;3.67;;;;;;;24.23;56.87;101105.22;7398168;19;20011;-65
2023/08/12 08:20:02;;;;;;;4.50;3.10;;;;;;;24.29;56.66;101101.25;7399527;19;20019;-65
2023/08/12 08:22:31;;;;;;;4.43;3.33;;;;;;;24.36;56.50;101097.13;7396487;19;20498;-65
2023/08/12 08:24:59;;;;;;;3.50;3.20;;;;;;;24.44;56.10;101096.59;7399523;19;20107;-66
2023/08/12 08:27:28;;;;;;;4.60;3.25;;;;;;;24.51;55.86;101091.59;7398143;19;20020;-66
2023/08/12 08:29:56;;;;;;;4.65;3.25;;;;;;;24.60;55.98;101101.63;7398822;19;20467;-66
2023/08/12 08:32:28;;;;;;;3.92;3.00;;;;;;;24.70;55.98;101107.19;7398795;19;20011;-66
2023/08/12 08:34:56;;;;;;;4.13;2.63;;;;;;;24.81;55.77;101109.91;7396274;19;20021;-66
2023/08/12 08:37:25;;;;;;;6.78;2.95;;;;;;;24.93;55.19;101112.63;7396344;19;20486;-66
2023/08/12 08:39:54;;;;;;;3.80;3.05;;;;;;;25.01;55.50;101110.19;7399063;19;20082;-66
2023/08/12 08:42:23;;;;;;;4.03;3.40;;;;;;;25.06;55.05;101116.09;7398621;19;20078;-65
2023/08/12 08:44:55;;;;;;;3.85;3.08;;;;;;;25.08;54.54;101105.22;7396466;19;20031;-66
2023/08/12 08:47:29;;;;;;;4.07;3.47;;;;;;;25.11;54.40;101110.34;7398241;19;20017;-66
2023/08/12 08:49:58;;;;;;;;;;;;;;;25.12;53.07;101110.22;7401576;19;20014;-66
2023/08/12 08:52:27;;;;;;;6.28;3.33;;;;;;;25.14;53.94;101110.97;7397467;19;20364;-66
2023/08/12 08:54:56;;;;;;;5.20;3.33;;;;;;;25.17;54.04;101118.78;7395540;19;20033;-66
2023/08/12 08:57:24;;;;;;;4.60;3.30;;;;;;;25.19;53.89;101118.66;7397959;19;20053;-66
2023/08/12 08:59:53;;;;;;;3.67;3.08;;;;;;;25.23;53.86;101116.59;7397527;19;20402;-66
2023/08/12 09:02:21;;;;;;;8.23;3.35;;;;;;;25.27;53.73;101112.69;7395183;19;20022;-67
2023/08/12 09:04:53;;;;;;;5.00;3.58;;;;;;;25.30;53.88;101115.13;7395492;19;20010;-67
2023/08/12 09:07:23;;;;;;;8.18;3.72;;;;;;;25.38;53.19;101118.09;7397548;19;20022;-67
2023/08/12 09:09:55;;;;;;;4.85;2.95;;;;;;;25.45;53.38;101127.41;7398064;19;20035;-67
2023/08/12 09:12:25;;;;;;;4.32;3.53;;;;;;;25.51;53.28;101121.50;7396355;19;20021;-67
2023/08/12 09:14:53;;;;;;;4.05;3.38;;;;;;;25.58;53.30;101118.34;7396044;19;20087;-67
2023/08/12 09:17:22;;;;;;;6.07;3.80;;;;;;;25.64;53.09;101115.16;7396351;19;20086;-66
2023/08/12 09:19:53;;;;;;;4.65;2.97;;;;;;;25.72;52.29;101114.56;7397771;19;20059;-67
2023/08/12 09:22:22;;;;;;;4.15;3.08;;;;;;;25.78;52.35;101116.75;7398167;19;20098;-67
2023/08/12 09:24:52;;;;;;;4.07;2.75;;;;;;;25.86;52.75;101117.00;7395507;19;20015;-67
2023/08/12 09:27:21;;;;;;;4.90;3.10;;;;;;;25.97;52.89;101121.47;7397125;19;20015;-67
2023/08/12 09:29:50;;;;;;;5.60;3.50;;;;;;;26.06;52.61;101114.53;7397071;19;20010;-67
2023/08/12 09:32:22;;;;;;;5.53;2.90;;;;;;;26.10;52.05;101113.34;7397404;19;20032;-67
2023/08/12 09:34:56;;;;;;;4.15;3.45;;;;;;;26.10;50.86;101118.72;7395005;19;20392;-67
2023/08/12 09:37:26;;;;;;;3.65;2.85;;;;;;;26.05;51.82;101124.44;7397426;19;20032;-67
2023/08/12 09:39:55;;;;;;;3.25;2.92;;;;;;;26.00;51.97;101122.09;7395197;19;20473;-67
2023/08/12 09:42:23;;;;;;;5.32;3.47;;;;;;;25.98;51.80;101120.50;7394815;19;20014;-67
2023/08/12 09:44:51;;;;;;;5.72;3.20;;;;;;;25.95;52.25;101118.09;7395058;19;20014;-66
2023/08/12 09:47:20;;;;;;;5.38;3.90;;;;;;;25.90;52.30;101102.31;7396768;19;20023;-67
2023/08/12 09:49:49;;;;;;;3.83;3.38;;;;;;;25.86;52.33;101112.47;7396634;19;20017;-67
2023/08/12 09:52:20;;;;;;;5.05;3.08;;;;;;;25.82;53.51;101105.63;7396302;19;20017;-67
2023/08/12 09:54:49;;;;;;;5.65;3.60;;;;;;;25.78;53.61;101108.69;7394495;19;20014;-67
2023/08/12 09:57:21;;;;;;;4.72;3.47;;;;;;;25.72;54.40;101101.13;7396174;19;20114;-67
2023/08/12 09:59:53;;;;;;;6.47;3.90;;;;;;;25.64;54.85;101101.75;7395008;19;20084;-67
2023/08/12 10:02:23;;;;;;;5.07;3.67;;;;;;;25.58;55.23;101094.16;7395974;19;20385;-66
2023/08/12 10:04:56;;;;;;;5.60;4.03;;;;;;;25.51;55.66;101096.50;7393749;19;20488;-66
2023/08/12 10:07:27;;;;;;;;;;;;;;;25.47;56.11;101100.41;7397232;19;20011;-67
2023/08/12 10:09:57;;;;;;;4.50;4.10;;;;;;;25.44;56.46;101095.25;7394529;19;19923;-67
2023/08/12 10:12:26;;;;;;;5.78;4.70;;;;;;;25.46;57.11;101104.06;7395235;19;20029;-67
2023/08/12 10:14:54;;;;;;;4.90;4.50;;;;;;;25.51;56.90;101101.88;7392332;19;20484;-67
2023/08/12 10:17:24;;;;;;;5.72;3.75;;;;;;;25.56;57.22;101099.66;7395219;19;20030;-67
2023/08/12 10:19:58;;;;;;;4.50;3.75;;;;;;;25.60;57.13;101092.22;7395126;19;20016;-67
2023/08/12 10:22:29;;;;;;;;;;;;;;;25.62;57.00;101088.44;7397091;19;20035;-67
2023/08/12 10:24:58;;;;;;;6.28;3.42;;;;;;;25.63;56.96;101100.03;7395270;19;20362;-67
2023/08/12 10:27:28;;;;;;;6.53;5.80;;;;;;;25.64;57.50;101091.00;7393956;19;20035;-67
2023/08/12 10:29:59;;;;;;;5.82;4.85;;;;;;;25.65;58.13;101081.97;7392977;19;20031;-67
2023/08/12 10:32:28;;;;;;;6.22;5.00;;;;;;;25.66;58.03;101083.66;7393217;19;20014;-67
2023/08/12 10:34:59;;;;;;;6.90;5.00;;;;;;;25.67;58.30;101069.28;7392725;19;20006;-67
2023/08/12 10:37:34;;;;;;;5.47;4.32;;;;;;;25.65;58.74;101073.91;7394328;19;20015;-66
2023/08/12 10:40:08;;;;;;;6.85;4.38;;;;;;;25.63;59.44;101067.78;7393282;19;20014;-66
2023/08/12 10:42:44;;;;;;;6.35;4.88;;;;;;;25.64;59.93;101074.88;7393595;19;20006;-65
2023/08/12 10:45:13;;;;;;;6.80;4.28;;;;;;;25.63;59.72;101084.78;7394630;19;20010;-66
2023/08/12 10:47:44;;;;;;;5.28;4.65;;;;;;;25.60;59.81;101093.06;7393539;19;20078;-66
2023/08/12 10:50:22;;;;;;;4.18;3.75;;;;;;;25.57;59.69;101098.69;7393775;19;20351;-66
2023/08/12 10:52:55;;;;;;;5.95;4.40;;;;;;;25.55;60.02;101097.09;7393252;19;20477;-65
2023/08/12 10:55:25;;;;;;;6.88;3.80;;;;;;;25.49;60.39;101083.19;7392257;19;20010;-67
2023/08/12 10:57:54;;;;;;;5.10;4.07;;;;;;;25.44;60.31;101077.34;7394031;19;20077;-65
2023/08/12 11:00:26;;;;;;;5.00;3.90;;;;;;;25.39;60.75;101082.22;7391960;19;20031;-65
2023/08/12 11:02:56;;;;;;;6.07;4.03;;;;;;;25.31;60.93;101084.63;7393573;19;20031;-66
2023/08/12 11:05:25;;;;;;;4.00;3.38;;;;;;;25.24;61.29;101100.38;7393972;19;20031;-65
2023/08/12 11:08:05;;;;;;;4.65;3.17;;;;;;;25.14;61.96;101099.38;7393013;19;20015;-65
2023/08/12 11:10:35;;;;;;;4.03;3.47;;;;;;;25.02;61.97;101096.69;7393933;19;20074;-66
2023/08/12 11:13:05;;;;;;;4.40;3.78;;;;;;;24.94;62.41;101107.13;7391667;19;20041;-66
2023/08/12 11:15:37;;;;;;;5.10;4.47;;;;;;;24.86;62.83;101107.72;7393564;19;20367;-65
2023/08/12 11:18:07;;;;;;;5.30;4.18;;;;;;;24.81;63.54;101101.84;7392847;19;20014;-65
2023/08/12 11:20:36;;;;;;;6.07;4.10;;;;;;;24.79;63.43;101100.25;7393744;19;20066;-65
2023/08/12 11:23:09;;;;;;;4.85;4.30;;;;;;;24.77;64.38;101095.03;7391503;19;20028;-66
2023/08/12 11:25:40;;;;;;;4.68;3.78;;;;;;;24.76;63.80;101101.34;7394448;19;20394;-66
2023/08/12 11:28:09;;;;;;;4.57;3.92;;;;;;;24.73;64.13;101096.22;7399389;19;20419;-66
2023/08/12 11:30:38;;;;;;;5.10;4.07;;;;;;;24.70;64.40;101099.97;7397807;19;20022;-67
2023/08/12 11:33:07;;;;;;;6.30;4.53;;;;;;;24.72;63.71;101091.84;7397873;19;20360;-66
2023/08/12 11:35:36;;;;;;;14.90;5.00;;;;;;;24.70;64.06;101088.41;7400709;19;20011;-66